sensor_id;sensor_type;location;lat;lon;timestamp;P1;durP1;ratioP1;P2;durP2;ratioP2
25123;SDS011;13104;51.030;4.686;2022-10-16T00:02:01;3.58;;;2.35;;
25123;SDS011;13104;51.030;4.686;2022-10-16T00:04:27;7.90;;;2.58;;
25123;SDS011;13104;51.030;4.686;2022-10-16T00:06:53;4.05;;;2.00;;
25123;SDS011;13104;51.030;4.686;2022-10-16T00:09:19;3.42;;;1.90;;
25123;SDS011;13104;51.030;4.686;2022-10-16T00:11:46;39.22;;;2.58;;
25123;SDS011;13104;51.030;4.686;2022-10-16T00:14:13;6.22;;;1.85;;
25123;SDS011;13104;51.030;4.686;2022-10-16T00:16:39;18.17;;;1.90;;
25123;SDS011;13104;51.030;4.686;2022-10-16T00:19:06;8.50;;;1.88;;
25123;SDS011;13104;51.030;4.686;2022-10-16T00:21:32;3.00;;;1.85;;
25123;SDS011;13104;51.030;4.686;2022-10-16T00:24:00;5.68;;;1.95;;
25123;SDS011;13104;51.030;4.686;2022-10-16T00:26:26;5.20;;;1.83;;
25123;SDS011;13104;51.030;4.686;2022-10-16T00:28:53;2.80;;;1.58;;
25123;SDS011;13104;51.030;4.686;2022-10-16T00:31:20;3.40;;;1.75;;
25123;SDS011;13104;51.030;4.686;2022-10-16T00:33:47;4.43;;;1.60;;
25123;SDS011;13104;51.030;4.686;2022-10-16T00:36:14;3.38;;;1.77;;
25123;SDS011;13104;51.030;4.686;2022-10-16T00:38:41;3.83;;;1.80;;
25123;SDS011;13104;51.030;4.686;2022-10-16T00:41:07;5.93;;;1.50;;
25123;SDS011;13104;51.030;4.686;2022-10-16T00:43:40;5.60;;;1.58;;
25123;SDS011;13104;51.030;4.686;2022-10-16T00:46:11;2.45;;;1.20;;
25123;SDS011;13104;51.030;4.686;2022-10-16T00:48:38;4.13;;;1.45;;
25123;SDS011;13104;51.030;4.686;2022-10-16T00:51:04;2.35;;;1.17;;
25123;SDS011;13104;51.030;4.686;2022-10-16T00:53:31;3.22;;;1.15;;
25123;SDS011;13104;51.030;4.686;2022-10-16T00:55:58;2.28;;;1.20;;
25123;SDS011;13104;51.030;4.686;2022-10-16T00:58:24;2.08;;;1.05;;
25123;SDS011;13104;51.030;4.686;2022-10-16T01:00:50;1.65;;;1.20;;
25123;SDS011;13104;51.030;4.686;2022-10-16T01:03:27;2.90;;;1.10;;
25123;SDS011;13104;51.030;4.686;2022-10-16T01:09:00;2.60;;;1.17;;
25123;SDS011;13104;51.030;4.686;2022-10-16T01:11:22;2.85;;;1.30;;
25123;SDS011;13104;51.030;4.686;2022-10-16T01:13:53;3.35;;;1.30;;
25123;SDS011;13104;51.030;4.686;2022-10-16T01:17:06;1.67;;;0.90;;
25123;SDS011;13104;51.030;4.686;2022-10-16T01:21:35;2.20;;;1.15;;
25123;SDS011;13104;51.030;4.686;2022-10-16T01:24:13;1.50;;;1.15;;
25123;SDS011;13104;51.030;4.686;2022-10-16T01:26:50;3.38;;;1.10;;
25123;SDS011;13104;51.030;4.686;2022-10-16T01:29:24;1.73;;;0.95;;
25123;SDS011;13104;51.030;4.686;2022-10-16T01:31:59;2.37;;;1.10;;
25123;SDS011;13104;51.030;4.686;2022-10-16T01:34:29;1.85;;;1.20;;
25123;SDS011;13104;51.030;4.686;2022-10-16T01:37:00;4.15;;;1.35;;
25123;SDS011;13104;51.030;4.686;2022-10-16T01:39:29;2.47;;;1.33;;
25123;SDS011;13104;51.030;4.686;2022-10-16T01:42:16;5.13;;;1.10;;
25123;SDS011;13104;51.030;4.686;2022-10-16T01:44:44;4.15;;;1.10;;
25123;SDS011;13104;51.030;4.686;2022-10-16T01:47:12;2.78;;;1.10;;
25123;SDS011;13104;51.030;4.686;2022-10-16T01:49:38;3.55;;;0.98;;
25123;SDS011;13104;51.030;4.686;2022-10-16T01:52:07;1.73;;;1.10;;
25123;SDS011;13104;51.030;4.686;2022-10-16T01:54:35;3.15;;;1.23;;
25123;SDS011;13104;51.030;4.686;2022-10-16T01:57:03;2.60;;;1.10;;
25123;SDS011;13104;51.030;4.686;2022-10-16T01:59:31;2.08;;;0.98;;
25123;SDS011;13104;51.030;4.686;2022-10-16T02:01:59;1.70;;;1.00;;
25123;SDS011;13104;51.030;4.686;2022-10-16T02:04:29;3.08;;;1.08;;
25123;SDS011;13104;51.030;4.686;2022-10-16T02:06:57;6.50;;;1.13;;
25123;SDS011;13104;51.030;4.686;2022-10-16T02:09:23;2.97;;;1.25;;
25123;SDS011;13104;51.030;4.686;2022-10-16T02:11:50;2.35;;;1.17;;
25123;SDS011;13104;51.030;4.686;2022-10-16T02:14:18;2.25;;;1.10;;
25123;SDS011;13104;51.030;4.686;2022-10-16T02:16:45;6.25;;;1.30;;
25123;SDS011;13104;51.030;4.686;2022-10-16T02:19:15;3.22;;;1.20;;
25123;SDS011;13104;51.030;4.686;2022-10-16T02:21:56;2.90;;;0.98;;
25123;SDS011;13104;51.030;4.686;2022-10-16T02:24:31;2.97;;;0.95;;
25123;SDS011;13104;51.030;4.686;2022-10-16T02:29:28;3.53;;;1.00;;
25123;SDS011;13104;51.030;4.686;2022-10-16T02:32:01;5.60;;;1.48;;
25123;SDS011;13104;51.030;4.686;2022-10-16T02:34:28;3.45;;;1.42;;
25123;SDS011;13104;51.030;4.686;2022-10-16T02:36:56;2.45;;;1.00;;
25123;SDS011;13104;51.030;4.686;2022-10-16T02:39:22;2.03;;;1.10;;
25123;SDS011;13104;51.030;4.686;2022-10-16T02:41:49;2.83;;;1.40;;
25123;SDS011;13104;51.030;4.686;2022-10-16T02:44:15;4.35;;;1.17;;
25123;SDS011;13104;51.030;4.686;2022-10-16T02:46:41;3.10;;;1.20;;
25123;SDS011;13104;51.030;4.686;2022-10-16T02:49:07;5.88;;;1.40;;
25123;SDS011;13104;51.030;4.686;2022-10-16T02:51:33;2.75;;;1.20;;
25123;SDS011;13104;51.030;4.686;2022-10-16T02:54:00;2.00;;;1.40;;
25123;SDS011;13104;51.030;4.686;2022-10-16T02:56:26;1.95;;;1.17;;
25123;SDS011;13104;51.030;4.686;2022-10-16T02:58:52;3.08;;;1.48;;
25123;SDS011;13104;51.030;4.686;2022-10-16T03:01:18;4.10;;;1.20;;
25123;SDS011;13104;51.030;4.686;2022-10-16T03:03:44;4.65;;;1.45;;
25123;SDS011;13104;51.030;4.686;2022-10-16T03:06:10;3.55;;;1.23;;
25123;SDS011;13104;51.030;4.686;2022-10-16T03:08:36;2.50;;;1.30;;
25123;SDS011;13104;51.030;4.686;2022-10-16T03:11:02;5.25;;;1.52;;
25123;SDS011;13104;51.030;4.686;2022-10-16T03:13:29;1.98;;;1.10;;
25123;SDS011;13104;51.030;4.686;2022-10-16T03:15:55;6.55;;;1.63;;
25123;SDS011;13104;51.030;4.686;2022-10-16T03:18:21;2.65;;;1.33;;
25123;SDS011;13104;51.030;4.686;2022-10-16T03:20:47;3.10;;;1.48;;
25123;SDS011;13104;51.030;4.686;2022-10-16T03:23:13;6.72;;;1.50;;
25123;SDS011;13104;51.030;4.686;2022-10-16T03:25:39;1.70;;;1.20;;
25123;SDS011;13104;51.030;4.686;2022-10-16T03:28:05;4.85;;;1.40;;
25123;SDS011;13104;51.030;4.686;2022-10-16T03:30:32;3.17;;;1.20;;
25123;SDS011;13104;51.030;4.686;2022-10-16T03:32:58;4.85;;;1.77;;
25123;SDS011;13104;51.030;4.686;2022-10-16T03:35:24;3.72;;;1.80;;
25123;SDS011;13104;51.030;4.686;2022-10-16T03:37:50;5.20;;;1.58;;
25123;SDS011;13104;51.030;4.686;2022-10-16T03:40:16;3.17;;;1.50;;
25123;SDS011;13104;51.030;4.686;2022-10-16T03:42:43;6.38;;;1.55;;
25123;SDS011;13104;51.030;4.686;2022-10-16T03:45:09;8.35;;;1.65;;
25123;SDS011;13104;51.030;4.686;2022-10-16T03:47:35;2.35;;;1.30;;
25123;SDS011;13104;51.030;4.686;2022-10-16T03:50:02;7.45;;;1.95;;
25123;SDS011;13104;51.030;4.686;2022-10-16T03:52:29;2.30;;;1.40;;
25123;SDS011;13104;51.030;4.686;2022-10-16T03:54:55;1.70;;;1.20;;
25123;SDS011;13104;51.030;4.686;2022-10-16T03:57:21;6.72;;;1.45;;
25123;SDS011;13104;51.030;4.686;2022-10-16T03:59:47;4.53;;;1.42;;
25123;SDS011;13104;51.030;4.686;2022-10-16T04:02:13;3.28;;;1.40;;
25123;SDS011;13104;51.030;4.686;2022-10-16T04:04:39;5.45;;;1.55;;
25123;SDS011;13104;51.030;4.686;2022-10-16T04:07:05;5.55;;;1.50;;
25123;SDS011;13104;51.030;4.686;2022-10-16T04:09:32;4.32;;;1.70;;
25123;SDS011;13104;51.030;4.686;2022-10-16T04:11:58;12.55;;;1.83;;
25123;SDS011;13104;51.030;4.686;2022-10-16T04:14:24;3.95;;;1.48;;
25123;SDS011;13104;51.030;4.686;2022-10-16T04:16:50;3.22;;;1.33;;
25123;SDS011;13104;51.030;4.686;2022-10-16T04:19:16;3.60;;;1.70;;
25123;SDS011;13104;51.030;4.686;2022-10-16T04:21:42;2.50;;;1.48;;
25123;SDS011;13104;51.030;4.686;2022-10-16T04:24:08;6.28;;;2.30;;
25123;SDS011;13104;51.030;4.686;2022-10-16T04:26:35;4.78;;;1.70;;
25123;SDS011;13104;51.030;4.686;2022-10-16T04:29:01;2.45;;;1.48;;
25123;SDS011;13104;51.030;4.686;2022-10-16T04:31:28;6.28;;;1.70;;
25123;SDS011;13104;51.030;4.686;2022-10-16T04:33:54;4.30;;;1.77;;
25123;SDS011;13104;51.030;4.686;2022-10-16T04:36:20;4.95;;;1.60;;
25123;SDS011;13104;51.030;4.686;2022-10-16T04:38:46;2.75;;;1.33;;
25123;SDS011;13104;51.030;4.686;2022-10-16T04:41:12;5.47;;;1.55;;
25123;SDS011;13104;51.030;4.686;2022-10-16T04:43:38;2.88;;;1.58;;
25123;SDS011;13104;51.030;4.686;2022-10-16T04:46:04;7.97;;;1.70;;
25123;SDS011;13104;51.030;4.686;2022-10-16T04:48:31;5.72;;;1.55;;
25123;SDS011;13104;51.030;4.686;2022-10-16T04:50:57;51.10;;;2.95;;
25123;SDS011;13104;51.030;4.686;2022-10-16T04:53:23;3.63;;;1.60;;
25123;SDS011;13104;51.030;4.686;2022-10-16T04:55:49;5.25;;;1.60;;
25123;SDS011;13104;51.030;4.686;2022-10-16T04:58:16;2.33;;;1.48;;
25123;SDS011;13104;51.030;4.686;2022-10-16T05:00:42;5.55;;;2.20;;
25123;SDS011;13104;51.030;4.686;2022-10-16T05:03:08;2.38;;;1.42;;
25123;SDS011;13104;51.030;4.686;2022-10-16T05:05:35;5.57;;;1.48;;
25123;SDS011;13104;51.030;4.686;2022-10-16T05:08:01;5.05;;;2.22;;
25123;SDS011;13104;51.030;4.686;2022-10-16T05:10:27;5.97;;;1.55;;
25123;SDS011;13104;51.030;4.686;2022-10-16T05:12:54;5.03;;;1.65;;
25123;SDS011;13104;51.030;4.686;2022-10-16T05:15:20;4.65;;;1.90;;
25123;SDS011;13104;51.030;4.686;2022-10-16T05:17:51;5.07;;;1.90;;
25123;SDS011;13104;51.030;4.686;2022-10-16T05:20:17;5.10;;;1.92;;
25123;SDS011;13104;51.030;4.686;2022-10-16T05:22:43;7.15;;;1.77;;
25123;SDS011;13104;51.030;4.686;2022-10-16T05:25:09;6.72;;;1.92;;
25123;SDS011;13104;51.030;4.686;2022-10-16T05:27:36;6.05;;;1.80;;
25123;SDS011;13104;51.030;4.686;2022-10-16T05:30:02;5.28;;;1.60;;
25123;SDS011;13104;51.030;4.686;2022-10-16T05:32:28;5.88;;;1.90;;
25123;SDS011;13104;51.030;4.686;2022-10-16T05:34:54;5.15;;;1.92;;
25123;SDS011;13104;51.030;4.686;2022-10-16T05:37:20;3.17;;;1.80;;
25123;SDS011;13104;51.030;4.686;2022-10-16T05:39:46;19.70;;;2.00;;
25123;SDS011;13104;51.030;4.686;2022-10-16T05:42:12;7.60;;;2.03;;
25123;SDS011;13104;51.030;4.686;2022-10-16T05:44:39;54.60;;;3.30;;
25123;SDS011;13104;51.030;4.686;2022-10-16T05:47:05;5.72;;;1.80;;
25123;SDS011;13104;51.030;4.686;2022-10-16T05:49:31;3.60;;;2.00;;
25123;SDS011;13104;51.030;4.686;2022-10-16T05:51:57;6.75;;;1.67;;
25123;SDS011;13104;51.030;4.686;2022-10-16T05:54:24;5.15;;;1.90;;
25123;SDS011;13104;51.030;4.686;2022-10-16T05:56:50;17.75;;;2.65;;
25123;SDS011;13104;51.030;4.686;2022-10-16T05:59:16;29.35;;;2.70;;
25123;SDS011;13104;51.030;4.686;2022-10-16T06:01:42;3.38;;;1.58;;
25123;SDS011;13104;51.030;4.686;2022-10-16T06:04:08;6.38;;;1.83;;
25123;SDS011;13104;51.030;4.686;2022-10-16T06:06:34;3.60;;;1.80;;
25123;SDS011;13104;51.030;4.686;2022-10-16T06:09:01;19.42;;;2.55;;
25123;SDS011;13104;51.030;4.686;2022-10-16T06:11:29;4.80;;;1.60;;
25123;SDS011;13104;51.030;4.686;2022-10-16T06:13:56;4.30;;;1.58;;
25123;SDS011;13104;51.030;4.686;2022-10-16T06:16:23;4.85;;;1.80;;
25123;SDS011;13104;51.030;4.686;2022-10-16T06:18:53;4.97;;;1.90;;
25123;SDS011;13104;51.030;4.686;2022-10-16T06:21:21;7.22;;;2.30;;
25123;SDS011;13104;51.030;4.686;2022-10-16T06:23:47;6.53;;;1.90;;
25123;SDS011;13104;51.030;4.686;2022-10-16T06:26:14;7.32;;;2.38;;
25123;SDS011;13104;51.030;4.686;2022-10-16T06:28:41;7.35;;;2.00;;
25123;SDS011;13104;51.030;4.686;2022-10-16T06:31:07;4.63;;;2.33;;
25123;SDS011;13104;51.030;4.686;2022-10-16T06:33:35;8.93;;;2.40;;
25123;SDS011;13104;51.030;4.686;2022-10-16T06:36:04;5.65;;;2.17;;
25123;SDS011;13104;51.030;4.686;2022-10-16T06:38:30;3.85;;;1.95;;
25123;SDS011;13104;51.030;4.686;2022-10-16T06:40:57;8.02;;;2.30;;
25123;SDS011;13104;51.030;4.686;2022-10-16T06:43:23;5.13;;;2.28;;
25123;SDS011;13104;51.030;4.686;2022-10-16T06:45:50;4.60;;;1.80;;
25123;SDS011;13104;51.030;4.686;2022-10-16T06:48:16;5.20;;;2.20;;
25123;SDS011;13104;51.030;4.686;2022-10-16T06:50:42;5.65;;;1.70;;
25123;SDS011;13104;51.030;4.686;2022-10-16T06:53:08;5.28;;;2.10;;
25123;SDS011;13104;51.030;4.686;2022-10-16T06:55:35;4.55;;;1.98;;
25123;SDS011;13104;51.030;4.686;2022-10-16T06:58:01;6.20;;;2.20;;
25123;SDS011;13104;51.030;4.686;2022-10-16T07:00:27;7.15;;;2.10;;
25123;SDS011;13104;51.030;4.686;2022-10-16T07:02:53;8.18;;;1.90;;
25123;SDS011;13104;51.030;4.686;2022-10-16T07:05:19;5.70;;;2.30;;
25123;SDS011;13104;51.030;4.686;2022-10-16T07:07:45;5.45;;;2.08;;
25123;SDS011;13104;51.030;4.686;2022-10-16T07:10:11;7.95;;;2.25;;
25123;SDS011;13104;51.030;4.686;2022-10-16T07:12:37;5.55;;;2.00;;
25123;SDS011;13104;51.030;4.686;2022-10-16T07:15:04;4.85;;;2.03;;
25123;SDS011;13104;51.030;4.686;2022-10-16T07:17:30;5.50;;;2.15;;
25123;SDS011;13104;51.030;4.686;2022-10-16T07:19:56;8.27;;;1.92;;
25123;SDS011;13104;51.030;4.686;2022-10-16T07:22:22;6.75;;;1.92;;
25123;SDS011;13104;51.030;4.686;2022-10-16T07:24:48;5.72;;;1.85;;
25123;SDS011;13104;51.030;4.686;2022-10-16T07:27:15;5.35;;;1.98;;
25123;SDS011;13104;51.030;4.686;2022-10-16T07:29:41;4.50;;;2.00;;
25123;SDS011;13104;51.030;4.686;2022-10-16T07:32:07;5.32;;;1.67;;
25123;SDS011;13104;51.030;4.686;2022-10-16T07:34:33;7.63;;;1.70;;
25123;SDS011;13104;51.030;4.686;2022-10-16T07:36:59;9.13;;;2.10;;
25123;SDS011;13104;51.030;4.686;2022-10-16T07:39:25;5.50;;;2.08;;
25123;SDS011;13104;51.030;4.686;2022-10-16T07:41:51;5.93;;;1.92;;
25123;SDS011;13104;51.030;4.686;2022-10-16T07:44:18;5.65;;;2.15;;
25123;SDS011;13104;51.030;4.686;2022-10-16T07:46:44;5.18;;;2.10;;
25123;SDS011;13104;51.030;4.686;2022-10-16T07:49:10;5.72;;;1.88;;
25123;SDS011;13104;51.030;4.686;2022-10-16T07:51:36;6.60;;;1.60;;
25123;SDS011;13104;51.030;4.686;2022-10-16T07:54:03;7.50;;;2.03;;
25123;SDS011;13104;51.030;4.686;2022-10-16T07:56:30;5.43;;;1.70;;
25123;SDS011;13104;51.030;4.686;2022-10-16T07:58:57;5.15;;;2.03;;
25123;SDS011;13104;51.030;4.686;2022-10-16T08:01:23;9.63;;;2.10;;
25123;SDS011;13104;51.030;4.686;2022-10-16T08:03:50;8.07;;;1.90;;
25123;SDS011;13104;51.030;4.686;2022-10-16T08:06:17;10.70;;;2.10;;
25123;SDS011;13104;51.030;4.686;2022-10-16T08:08:43;6.13;;;1.65;;
25123;SDS011;13104;51.030;4.686;2022-10-16T08:11:09;7.15;;;2.47;;
25123;SDS011;13104;51.030;4.686;2022-10-16T08:13:36;5.38;;;1.67;;
25123;SDS011;13104;51.030;4.686;2022-10-16T08:16:02;5.07;;;1.60;;
25123;SDS011;13104;51.030;4.686;2022-10-16T08:18:32;6.80;;;1.90;;
25123;SDS011;13104;51.030;4.686;2022-10-16T08:20:59;7.45;;;1.60;;
25123;SDS011;13104;51.030;4.686;2022-10-16T08:23:25;5.22;;;1.77;;
25123;SDS011;13104;51.030;4.686;2022-10-16T08:25:53;5.00;;;1.60;;
25123;SDS011;13104;51.030;4.686;2022-10-16T08:28:23;4.90;;;1.88;;
25123;SDS011;13104;51.030;4.686;2022-10-16T08:30:49;8.07;;;1.63;;
25123;SDS011;13104;51.030;4.686;2022-10-16T08:33:15;7.68;;;1.75;;
25123;SDS011;13104;51.030;4.686;2022-10-16T08:35:42;7.25;;;1.80;;
25123;SDS011;13104;51.030;4.686;2022-10-16T08:38:08;10.82;;;2.17;;
25123;SDS011;13104;51.030;4.686;2022-10-16T08:40:36;5.20;;;1.80;;
25123;SDS011;13104;51.030;4.686;2022-10-16T08:50:57;7.90;;;1.63;;
25123;SDS011;13104;51.030;4.686;2022-10-16T08:53:38;4.28;;;1.70;;
25123;SDS011;13104;51.030;4.686;2022-10-16T08:56:07;8.20;;;1.52;;
25123;SDS011;13104;51.030;4.686;2022-10-16T08:58:34;6.18;;;1.90;;
25123;SDS011;13104;51.030;4.686;2022-10-16T09:01:00;7.45;;;1.58;;
25123;SDS011;13104;51.030;4.686;2022-10-16T09:08:38;5.35;;;1.50;;
25123;SDS011;13104;51.030;4.686;2022-10-16T09:11:11;7.95;;;1.40;;
25123;SDS011;13104;51.030;4.686;2022-10-16T09:16:27;4.90;;;1.10;;
25123;SDS011;13104;51.030;4.686;2022-10-16T09:21:23;7.80;;;1.77;;
25123;SDS011;13104;51.030;4.686;2022-10-16T09:23:51;6.72;;;1.63;;
25123;SDS011;13104;51.030;4.686;2022-10-16T09:26:17;7.28;;;1.50;;
25123;SDS011;13104;51.030;4.686;2022-10-16T09:28:46;7.03;;;1.52;;
25123;SDS011;13104;51.030;4.686;2022-10-16T09:31:17;6.80;;;1.25;;
25123;SDS011;13104;51.030;4.686;2022-10-16T09:33:44;6.15;;;1.30;;
25123;SDS011;13104;51.030;4.686;2022-10-16T09:36:11;9.98;;;1.60;;
25123;SDS011;13104;51.030;4.686;2022-10-16T09:38:38;6.72;;;1.38;;
25123;SDS011;13104;51.030;4.686;2022-10-16T09:43:40;7.30;;;1.48;;
25123;SDS011;13104;51.030;4.686;2022-10-16T09:46:26;10.88;;;1.50;;
25123;SDS011;13104;51.030;4.686;2022-10-16T09:48:57;6.85;;;1.77;;
25123;SDS011;13104;51.030;4.686;2022-10-16T09:51:28;5.05;;;1.48;;
25123;SDS011;13104;51.030;4.686;2022-10-16T09:53:58;8.35;;;1.50;;
25123;SDS011;13104;51.030;4.686;2022-10-16T09:56:26;9.23;;;1.58;;
25123;SDS011;13104;51.030;4.686;2022-10-16T09:58:53;5.28;;;1.25;;
25123;SDS011;13104;51.030;4.686;2022-10-16T10:01:19;7.53;;;1.92;;
25123;SDS011;13104;51.030;4.686;2022-10-16T10:03:46;7.03;;;1.30;;
25123;SDS011;13104;51.030;4.686;2022-10-16T10:06:33;7.20;;;1.55;;
25123;SDS011;13104;51.030;4.686;2022-10-16T10:09:01;11.02;;;1.45;;
25123;SDS011;13104;51.030;4.686;2022-10-16T10:11:38;7.18;;;1.70;;
25123;SDS011;13104;51.030;4.686;2022-10-16T10:14:20;6.32;;;1.10;;
25123;SDS011;13104;51.030;4.686;2022-10-16T10:16:47;10.75;;;1.73;;
25123;SDS011;13104;51.030;4.686;2022-10-16T10:19:15;11.25;;;1.35;;
25123;SDS011;13104;51.030;4.686;2022-10-16T10:21:41;10.63;;;1.50;;
25123;SDS011;13104;51.030;4.686;2022-10-16T10:24:14;7.00;;;1.60;;
25123;SDS011;13104;51.030;4.686;2022-10-16T10:31:55;9.63;;;1.50;;
25123;SDS011;13104;51.030;4.686;2022-10-16T10:39:54;7.38;;;2.10;;
25123;SDS011;13104;51.030;4.686;2022-10-16T10:42:31;6.85;;;1.38;;
25123;SDS011;13104;51.030;4.686;2022-10-16T10:55:33;7.60;;;1.40;;
25123;SDS011;13104;51.030;4.686;2022-10-16T11:06:18;6.50;;;1.30;;
25123;SDS011;13104;51.030;4.686;2022-10-16T11:08:58;8.77;;;1.25;;
25123;SDS011;13104;51.030;4.686;2022-10-16T11:11:34;7.60;;;1.63;;
25123;SDS011;13104;51.030;4.686;2022-10-16T11:16:35;7.20;;;1.23;;
25123;SDS011;13104;51.030;4.686;2022-10-16T11:19:04;6.40;;;1.10;;
25123;SDS011;13104;51.030;4.686;2022-10-16T11:21:41;3.78;;;1.40;;
25123;SDS011;13104;51.030;4.686;2022-10-16T11:24:17;8.50;;;1.90;;
25123;SDS011;13104;51.030;4.686;2022-10-16T11:26:44;4.32;;;1.20;;
25123;SDS011;13104;51.030;4.686;2022-10-16T11:29:15;5.50;;;1.40;;
25123;SDS011;13104;51.030;4.686;2022-10-16T11:31:56;7.28;;;1.70;;
25123;SDS011;13104;51.030;4.686;2022-10-16T11:34:38;5.90;;;1.38;;
25123;SDS011;13104;51.030;4.686;2022-10-16T11:37:11;6.63;;;1.50;;
25123;SDS011;13104;51.030;4.686;2022-10-16T11:39:40;5.30;;;1.10;;
25123;SDS011;13104;51.030;4.686;2022-10-16T11:44:42;6.10;;;1.20;;
25123;SDS011;13104;51.030;4.686;2022-10-16T11:47:15;7.30;;;1.60;;
25123;SDS011;13104;51.030;4.686;2022-10-16T11:49:45;7.28;;;1.35;;
25123;SDS011;13104;51.030;4.686;2022-10-16T11:54:44;9.98;;;1.42;;
25123;SDS011;13104;51.030;4.686;2022-10-16T11:57:16;4.22;;;1.30;;
25123;SDS011;13104;51.030;4.686;2022-10-16T11:59:48;6.78;;;1.50;;
25123;SDS011;13104;51.030;4.686;2022-10-16T12:02:24;4.80;;;0.63;;
25123;SDS011;13104;51.030;4.686;2022-10-16T12:05:09;5.57;;;1.23;;
25123;SDS011;13104;51.030;4.686;2022-10-16T12:07:39;7.30;;;1.33;;
25123;SDS011;13104;51.030;4.686;2022-10-16T12:10:27;5.45;;;1.30;;
25123;SDS011;13104;51.030;4.686;2022-10-16T12:12:54;6.10;;;1.15;;
25123;SDS011;13104;51.030;4.686;2022-10-16T12:15:23;5.95;;;1.20;;
25123;SDS011;13104;51.030;4.686;2022-10-16T12:17:50;3.85;;;0.93;;
25123;SDS011;13104;51.030;4.686;2022-10-16T12:22:56;3.83;;;1.10;;
25123;SDS011;13104;51.030;4.686;2022-10-16T12:25:31;4.38;;;1.10;;
25123;SDS011;13104;51.030;4.686;2022-10-16T12:27:58;2.10;;;0.70;;
25123;SDS011;13104;51.030;4.686;2022-10-16T12:30:26;6.05;;;1.17;;
25123;SDS011;13104;51.030;4.686;2022-10-16T12:32:53;3.50;;;1.00;;
25123;SDS011;13104;51.030;4.686;2022-10-16T12:35:24;5.43;;;1.08;;
25123;SDS011;13104;51.030;4.686;2022-10-16T12:37:51;7.75;;;1.23;;
25123;SDS011;13104;51.030;4.686;2022-10-16T12:42:50;4.25;;;1.10;;
25123;SDS011;13104;51.030;4.686;2022-10-16T12:45:32;5.47;;;0.90;;
25123;SDS011;13104;51.030;4.686;2022-10-16T12:48:00;4.32;;;0.93;;
25123;SDS011;13104;51.030;4.686;2022-10-16T12:52:58;3.45;;;1.00;;
25123;SDS011;13104;51.030;4.686;2022-10-16T12:55:25;6.85;;;1.20;;
25123;SDS011;13104;51.030;4.686;2022-10-16T12:58:30;4.13;;;1.10;;
25123;SDS011;13104;51.030;4.686;2022-10-16T13:06:01;3.88;;;1.15;;
25123;SDS011;13104;51.030;4.686;2022-10-16T13:13:50;4.22;;;0.90;;
25123;SDS011;13104;51.030;4.686;2022-10-16T13:16:22;6.07;;;1.15;;
25123;SDS011;13104;51.030;4.686;2022-10-16T13:21:55;3.45;;;1.00;;
25123;SDS011;13104;51.030;4.686;2022-10-16T13:29:34;4.03;;;1.00;;
25123;SDS011;13104;51.030;4.686;2022-10-16T13:32:00;2.33;;;1.10;;
25123;SDS011;13104;51.030;4.686;2022-10-16T13:34:27;2.85;;;1.00;;
25123;SDS011;13104;51.030;4.686;2022-10-16T13:36:53;6.45;;;1.23;;
25123;SDS011;13104;51.030;4.686;2022-10-16T13:39:24;4.63;;;0.95;;
25123;SDS011;13104;51.030;4.686;2022-10-16T13:42:01;3.10;;;1.10;;
25123;SDS011;13104;51.030;4.686;2022-10-16T13:44:28;5.10;;;1.50;;
25123;SDS011;13104;51.030;4.686;2022-10-16T13:46:59;5.30;;;1.13;;
25123;SDS011;13104;51.030;4.686;2022-10-16T13:49:26;3.42;;;1.00;;
25123;SDS011;13104;51.030;4.686;2022-10-16T13:51:56;4.13;;;1.02;;
25123;SDS011;13104;51.030;4.686;2022-10-16T13:54:23;3.88;;;0.77;;
25123;SDS011;13104;51.030;4.686;2022-10-16T13:56:49;5.00;;;1.20;;
25123;SDS011;13104;51.030;4.686;2022-10-16T14:01:51;2.55;;;0.90;;
25123;SDS011;13104;51.030;4.686;2022-10-16T14:04:19;5.07;;;1.17;;
25123;SDS011;13104;51.030;4.686;2022-10-16T14:06:45;7.13;;;1.20;;
25123;SDS011;13104;51.030;4.686;2022-10-16T14:09:14;4.13;;;1.15;;
25123;SDS011;13104;51.030;4.686;2022-10-16T14:12:03;5.18;;;1.05;;
25123;SDS011;13104;51.030;4.686;2022-10-16T14:14:49;6.10;;;1.40;;
25123;SDS011;13104;51.030;4.686;2022-10-16T14:17:22;4.53;;;1.25;;
25123;SDS011;13104;51.030;4.686;2022-10-16T14:19:49;4.75;;;1.00;;
25123;SDS011;13104;51.030;4.686;2022-10-16T14:24:45;6.95;;;1.10;;
25123;SDS011;13104;51.030;4.686;2022-10-16T14:27:20;4.88;;;1.10;;
25123;SDS011;13104;51.030;4.686;2022-10-16T14:29:49;4.13;;;1.20;;
25123;SDS011;13104;51.030;4.686;2022-10-16T14:32:22;7.22;;;1.10;;
25123;SDS011;13104;51.030;4.686;2022-10-16T14:34:52;7.95;;;1.20;;
25123;SDS011;13104;51.030;4.686;2022-10-16T14:37:26;4.53;;;1.30;;
25123;SDS011;13104;51.030;4.686;2022-10-16T14:39:53;5.80;;;1.42;;
25123;SDS011;13104;51.030;4.686;2022-10-16T14:42:20;3.63;;;1.20;;
25123;SDS011;13104;51.030;4.686;2022-10-16T14:44:48;3.83;;;1.20;;
25123;SDS011;13104;51.030;4.686;2022-10-16T14:47:18;6.55;;;1.30;;
25123;SDS011;13104;51.030;4.686;2022-10-16T14:49:50;2.83;;;1.10;;
25123;SDS011;13104;51.030;4.686;2022-10-16T14:52:16;4.05;;;1.50;;
25123;SDS011;13104;51.030;4.686;2022-10-16T14:54:42;4.35;;;1.17;;
25123;SDS011;13104;51.030;4.686;2022-10-16T14:57:19;4.05;;;1.30;;
25123;SDS011;13104;51.030;4.686;2022-10-16T14:59:46;5.95;;;1.42;;
25123;SDS011;13104;51.030;4.686;2022-10-16T15:02:29;4.57;;;1.63;;
25123;SDS011;13104;51.030;4.686;2022-10-16T15:04:56;5.38;;;1.23;;
25123;SDS011;13104;51.030;4.686;2022-10-16T15:07:22;6.78;;;1.20;;
25123;SDS011;13104;51.030;4.686;2022-10-16T15:09:49;5.18;;;1.33;;
25123;SDS011;13104;51.030;4.686;2022-10-16T15:12:16;6.40;;;1.42;;
25123;SDS011;13104;51.030;4.686;2022-10-16T15:14:42;3.28;;;1.40;;
25123;SDS011;13104;51.030;4.686;2022-10-16T15:17:11;7.57;;;1.40;;
25123;SDS011;13104;51.030;4.686;2022-10-16T15:19:37;5.30;;;1.83;;
25123;SDS011;13104;51.030;4.686;2022-10-16T15:22:03;12.07;;;1.40;;
25123;SDS011;13104;51.030;4.686;2022-10-16T15:24:30;6.53;;;1.48;;
25123;SDS011;13104;51.030;4.686;2022-10-16T15:26:56;5.35;;;1.85;;
25123;SDS011;13104;51.030;4.686;2022-10-16T15:29:22;6.53;;;1.70;;
25123;SDS011;13104;51.030;4.686;2022-10-16T15:31:48;6.82;;;1.67;;
25123;SDS011;13104;51.030;4.686;2022-10-16T15:34:14;5.85;;;1.60;;
25123;SDS011;13104;51.030;4.686;2022-10-16T15:36:40;6.13;;;1.65;;
25123;SDS011;13104;51.030;4.686;2022-10-16T15:39:14;6.10;;;1.73;;
25123;SDS011;13104;51.030;4.686;2022-10-16T15:41:40;5.10;;;1.40;;
25123;SDS011;13104;51.030;4.686;2022-10-16T15:44:06;7.07;;;1.50;;
25123;SDS011;13104;51.030;4.686;2022-10-16T15:46:33;6.32;;;1.35;;
25123;SDS011;13104;51.030;4.686;2022-10-16T15:49:00;5.10;;;1.60;;
25123;SDS011;13104;51.030;4.686;2022-10-16T15:51:26;5.03;;;1.40;;
25123;SDS011;13104;51.030;4.686;2022-10-16T15:53:55;9.27;;;1.55;;
25123;SDS011;13104;51.030;4.686;2022-10-16T15:56:22;6.57;;;1.40;;
25123;SDS011;13104;51.030;4.686;2022-10-16T15:58:50;5.57;;;1.30;;
25123;SDS011;13104;51.030;4.686;2022-10-16T16:01:16;4.40;;;1.10;;
25123;SDS011;13104;51.030;4.686;2022-10-16T16:03:42;6.40;;;1.80;;
25123;SDS011;13104;51.030;4.686;2022-10-16T16:06:10;4.88;;;1.40;;
25123;SDS011;13104;51.030;4.686;2022-10-16T16:08:37;7.95;;;1.20;;
25123;SDS011;13104;51.030;4.686;2022-10-16T16:11:04;6.05;;;1.70;;
25123;SDS011;13104;51.030;4.686;2022-10-16T16:13:31;9.45;;;1.85;;
25123;SDS011;13104;51.030;4.686;2022-10-16T16:15:57;7.03;;;1.73;;
25123;SDS011;13104;51.030;4.686;2022-10-16T16:18:24;11.98;;;1.70;;
25123;SDS011;13104;51.030;4.686;2022-10-16T16:20:50;7.28;;;1.70;;
25123;SDS011;13104;51.030;4.686;2022-10-16T16:23:17;7.47;;;1.95;;
25123;SDS011;13104;51.030;4.686;2022-10-16T16:25:44;16.13;;;1.90;;
25123;SDS011;13104;51.030;4.686;2022-10-16T16:28:10;9.63;;;1.88;;
25123;SDS011;13104;51.030;4.686;2022-10-16T16:30:39;21.35;;;2.00;;
25123;SDS011;13104;51.030;4.686;2022-10-16T16:33:05;12.27;;;2.17;;